Kezdőlap
METAR-TAF:

METAR-TAF

Repülőterek :

Pond Inlet, Nunavut, Kanada

földrajzi szélesség: 72-42N, földrajzi hosszúság: 077-58W, magasság: 59 m

Jelenlegi meteorológiai megfigyelések

A jelentés 28 perccel ezelõtt készült, 07:00 UTC
Különbözõ irányokból fújó szél 2 kt
Hőmérséklet -2°C
Páratartalom 93%
Légköri nyomás 1012 hPa
Látótávolság: 14.5 km
Derült ég

METAR: CYIO 250700Z AUTO VRB02KT 9SM CLR M02/M03 A2988 RMK SLP127

Idő: 03:28 (07:28 UTC)

Előrejelzés

A jelentés 44 perccel ezelõtt készült, 06:44 UTC
Az előrejelzés 25-én 07 óra UTC és 25-én 19 óra UTC között érvényes
Különbözõ irányokból fújó szél 3 kt
Látótávolság: 10 km
Szórványos felhőzet 4000 lábon
Szakadozott felhőzet 10000 lábon
25-én 07 óra UTC és 25-én 19 óra UTC között ideiglenes
Szakadozott felhőzet 4000 lábon

TAF: CYIO 250644Z 2507/2519 VRB03KT P6SM SCT040 BKN100 TEMPO 2507/2519 BKN040 RMK FCST BASED ON AUTO OBS. NXT FCST BY 251300Z

Meteorológiai megfigyelések és előrejelzések több, mint 4000 repülőtéren (METAR és TAF jelentéseket).

A térképen piros és sárga pontok jelzik az elérhető meteorológiai állomásokat.

Mozgassa az egeret a pont fölött, hogy megjelenjen az állomás neve.

Azután kattintson az időjárási megfigyelések és előrejelzések megtekintéséhez.

A térkép megváltoztatása: kattintson a fekete keresztel jelölt zöld gombra ráközelítéshez, a vonallal jelölt zöld gombra távolításhoz, vagy a zöld nyilakra a szomszédos térképek eléréséhez.


METAR-TAF: